Kezdőlap
METAR-TAF:

METAR-TAF

Repülőterek :

Locarno, Svájc

földrajzi szélesség: 46-09-55N, földrajzi hosszúság: 8-52-40E, magasság: 198 m

Jelenlegi meteorológiai megfigyelések

A jelentés 30 perccel ezelõtt készült, 19:50 UTC
Különbözõ irányokból fújó szél 1 kt
Hőmérséklet 5°C
Páratartalom 75%
Légköri nyomás 1032 hPa
Látótávolság: 6000 m
Szórványos felhőzet 3600 lábon

METAR: LSZL 221950Z AUTO VRB01KT 6000NDV SCT036 05/01 Q1032 RMK

Idő: 21:20 (20:20 UTC)

Előrejelzés

A jelentés 26 órával és 55 perccel ezelõtt készült, 17:25 UTC
Az előrejelzés 21-én 18 óra UTC és 22-én 03 óra UTC között érvényes
Különbözõ irányokból fújó szél 3 kt
Látótávolság 10 km, vagy több
felhőtlen 1500 m magasságban, és nincs gomolyfelhõ
Valószínűség 30% :
21-én 18 óra UTC és 21-én 21 óra UTC között ideiglenes
Keleti szél 10 kt

TAF: LSZL 211725Z 2118/2203 VRB03KT CAVOK PROB30 TEMPO 2118/2121 09010KT

Meteorológiai megfigyelések és előrejelzések több, mint 4000 repülőtéren (METAR és TAF jelentéseket).

A térképen piros és sárga pontok jelzik az elérhető meteorológiai állomásokat.

Mozgassa az egeret a pont fölött, hogy megjelenjen az állomás neve.

Azután kattintson az időjárási megfigyelések és előrejelzések megtekintéséhez.

A térkép megváltoztatása: kattintson a fekete keresztel jelölt zöld gombra ráközelítéshez, a vonallal jelölt zöld gombra távolításhoz, vagy a zöld nyilakra a szomszédos térképek eléréséhez.


METAR-TAF: